Time;durP1;ratioP1;P1;durP2;ratioP2;P2;SDS_P1;SDS_P2;PMS_P1;PMS_P2;Temp;Humidity;BMP_temperature;BMP_pressure;BME280_temperature;BME280_humidity;BME280_pressure;Samples;Min_cycle;Max_cycle;Signal;HPM_P1;HPM_P2
2022/03/04 00:01:52;;;;;;;;;;;;;;;;;;5092461;28;19920;-58
2022/03/04 00:04:19;;;;;;;;;;;;;;;;;;5092786;28;19931;-53
2022/03/04 00:06:45;;;;;;;;;;;;;;;;;;5092881;28;20363;-56
2022/03/04 00:09:12;;;;;;;;;;;;;;;;;;5092978;28;19915;-56
2022/03/04 00:11:38;;;;;;;;;;;;;;;;;;5092423;28;20006;-55
2022/03/04 00:14:05;;;;;;;;;;;;;;;;;;5093305;28;20254;-55
2022/03/04 00:16:31;;;;;;;;;;;;;;;;;;5092984;28;19915;-58
2022/03/04 00:19:07;;;;;;;;;;;;;;;;;;5092517;28;19908;-58
2022/03/04 00:21:34;;;;;;;;;;;;;;;;;;5092223;28;20238;-57
2022/03/04 00:24:00;;;;;;;;;;;;;;;;;;5092330;28;19908;-55
2022/03/04 00:26:27;;;;;;;;;;;;;;;;;;5092699;28;19953;-58
2022/03/04 00:28:53;;;;;;;;;;;;;;;;;;5092605;28;19915;-59
2022/03/04 00:31:19;;;;;;;;;;;;;;;;;;5093114;28;19908;-58
2022/03/04 00:33:47;;;;;;;;;;;;;;;;;;5092214;28;20335;-59
2022/03/04 00:36:13;;;;;;;;;;;;;;;;;;5092311;28;19915;-59
2022/03/04 00:38:39;;;;;;;;;;;;;;;;;;5092517;28;19908;-58
2022/03/04 00:41:06;;;;;;;;;;;;;;;;;;5092627;28;19909;-59
2022/03/04 00:43:32;;;;;;;;;;;;;;;;;;5092404;28;19908;-58
2022/03/04 00:45:59;;;;;;;;;;;;;;;;;;5092509;28;20321;-60
2022/03/04 00:48:25;;;;;;;;;;;;;;;;;;5092863;28;19909;-57
2022/03/04 00:50:52;;;;;;;;;;;;;;;;;;5092583;28;19908;-59
2022/03/04 00:53:18;;;;;;;;;;;;;;;;;;5093864;28;19908;-60
2022/03/04 00:55:45;;;;;;;;;;;;;;;;;;5095876;28;20297;-59
2022/03/04 00:58:11;;;;;;;;;;;;;;;;;;5096062;28;19912;-59
2022/03/04 01:00:38;;;;;;;;;;;;;;;;;;5096467;28;19941;-58
2022/03/04 01:03:04;;;;;;;;;;;;;;;;;;5095907;28;19924;-57
2022/03/04 01:05:32;;;;;;;;;;;;;;;;;;5096162;28;19920;-56
2022/03/04 01:07:58;;;;;;;;;;;;;;;;;;5096172;28;19912;-57
2022/03/04 01:10:25;;;;;;;;;;;;;;;;;;5096033;28;19947;-58
2022/03/04 01:12:51;;;;;;;;;;;;;;;;;;5096039;28;19920;-57
2022/03/04 01:15:18;;;;;;;;;;;;;;;;;;5096052;28;19908;-57
2022/03/04 01:17:44;;;;;;;;;;;;;;;;;;5095412;28;19908;-59
2022/03/04 01:20:11;;;;;;;;;;;;;;;;;;5095907;28;19961;-58
2022/03/04 01:22:37;;;;;;;;;;;;;;;;;;5095745;28;19943;-56
2022/03/04 01:25:04;;;;;;;;;;;;;;;;;;5095165;28;19916;-56
2022/03/04 01:27:30;;;;;;;;;;;;;;;;;;5090109;28;19914;-53
2022/03/04 01:29:56;;;;;;;;;;;;;;;;;;5095120;28;19920;-56
2022/03/04 01:32:23;;;;;;;;;;;;;;;;;;5095430;28;20423;-56
2022/03/04 01:34:49;;;;;;;;;;;;;;;;;;5095605;28;20016;-55
2022/03/04 01:37:16;;;;;;;;;;;;;;;;;;5095556;28;19919;-55
2022/03/04 01:39:42;;;;;;;;;;;;;;;;;;5095553;28;19918;-58
2022/03/04 01:42:09;;;;;;;;;;;;;;;;;;5094920;28;20014;-54
2022/03/04 01:44:35;;;;;;;;;;;;;;;;;;5095150;28;19934;-53
2022/03/04 01:47:02;;;;;;;;;;;;;;;;;;5095720;28;19999;-56
2022/03/04 01:49:28;;;;;;;;;;;;;;;;;;5095605;28;20370;-58
2022/03/04 01:51:55;;;;;;;;;;;;;;;;;;5094645;28;19999;-58
2022/03/04 01:54:21;;;;;;;;;;;;;;;;;;5095382;28;19915;-55
2022/03/04 01:56:48;;;;;;;;;;;;;;;;;;5094997;28;19912;-56
2022/03/04 01:59:14;;;;;;;;;;;;;;;;;;5094985;28;19908;-56
2022/03/04 02:01:41;;;;;;;;;;;;;;;;;;5094329;28;19908;-54
2022/03/04 02:04:07;;;;;;;;;;;;;;;;;;5093677;28;19912;-56
2022/03/04 02:06:34;;;;;;;;;;;;;;;;;;5094425;28;19915;-55
2022/03/04 02:09:00;;;;;;;;;;;;;;;;;;5095000;28;19915;-53
2022/03/04 02:11:26;;;;;;;;;;;;;;;;;;5095377;28;20308;-56
2022/03/04 02:13:53;;;;;;;;;;;;;;;;;;5094844;28;20266;-57
2022/03/04 02:16:19;;;;;;;;;;;;;;;;;;5094707;28;19925;-57
2022/03/04 02:18:46;;;;;;;;;;;;;;;;;;5094604;28;19908;-57
2022/03/04 02:21:12;;;;;;;;;;;;;;;;;;5094826;28;19915;-57
2022/03/04 02:23:39;;;;;;;;;;;;;;;;;;5094492;28;20276;-57
2022/03/04 02:26:06;;;;;;;;;;;;;;;;;;5094620;28;19919;-54
2022/03/04 02:28:32;;;;;;;;;;;;;;;;;;5094513;28;20424;-57
2022/03/04 02:30:59;;;;;;;;;;;;;;;;;;5094525;28;20241;-61
2022/03/04 02:33:25;;;;;;;;;;;;;;;;;;5094292;28;19914;-57
2022/03/04 02:35:52;;;;;;;;;;;;;;;;;;5094851;28;19912;-59
2022/03/04 02:38:18;;;;;;;;;;;;;;;;;;5114495;28;20325;-59
2022/03/04 02:40:45;;;;;;;;;;;;;;;;;;5113866;28;19908;-57
2022/03/04 02:43:11;;;;;;;;;;;;;;;;;;5114433;28;20040;-60
2022/03/04 02:45:41;;;;;;;;;;;;;;;;;;5113079;28;19915;-58
2022/03/04 02:48:12;;;;;;;;;;;;;;;;;;5113926;28;19995;-55
2022/03/04 02:50:39;;;;;;;;;;;;;;;;;;5114671;28;19911;-54
2022/03/04 02:53:05;;;;;;;;;;;;;;;;;;5114590;27;20036;-54
2022/03/04 02:55:32;;;;;;;;;;;;;;;;;;5114151;28;19915;-56
2022/03/04 02:57:58;;;;;;;;;;;;;;;;;;5112682;28;19919;-58
2022/03/04 03:00:25;;;;;;;;;;;;;;;;;;5114306;28;19942;-60
2022/03/04 03:02:52;;;;;;;;;;;;;;;;;;5113512;28;19927;-57
2022/03/04 03:05:18;;;;;;;;;;;;;;;;;;5113587;28;19951;-60
2022/03/04 03:07:45;;;;;;;;;;;;;;;;;;5112434;28;19908;-57
2022/03/04 03:10:11;;;;;;;;;;;;;;;;;;5114069;28;20001;-58
2022/03/04 03:12:38;;;;;;;;;;;;;;;;;;5113677;28;19908;-59
2022/03/04 03:15:04;;;;;;;;;;;;;;;;;;5112216;28;20015;-55
2022/03/04 03:17:31;;;;;;;;;;;;;;;;;;5113984;28;19919;-60
2022/03/04 03:19:57;;;;;;;;;;;;;;;;;;5113680;28;19949;-59
2022/03/04 03:22:24;;;;;;;;;;;;;;;;;;5114234;28;19907;-59
2022/03/04 03:24:50;;;;;;;;;;;;;;;;;;5113528;28;19915;-60
2022/03/04 03:27:17;;;;;;;;;;;;;;;;;;5114201;28;19908;-56
2022/03/04 03:29:43;;;;;;;;;;;;;;;;;;5114049;28;19947;-57
2022/03/04 03:32:13;;;;;;;;;;;;;;;;;;5113894;28;19907;-58
2022/03/04 03:34:39;;;;;;;;;;;;;;;;;;5113585;28;20265;-58
2022/03/04 03:37:06;;;;;;;;;;;;;;;;;;5114222;28;19908;-57
2022/03/04 03:39:32;;;;;;;;;;;;;;;;;;5113366;28;19920;-57
2022/03/04 03:41:59;;;;;;;;;;;;;;;;;;5113453;28;19912;-60
2022/03/04 03:44:25;;;;;;;;;;;;;;;;;;5113414;28;19988;-57
2022/03/04 03:46:52;;;;;;;;;;;;;;;;;;5113339;28;19969;-59
2022/03/04 03:49:18;;;;;;;;;;;;;;;;;;5113114;28;19904;-59
2022/03/04 03:51:44;;;;;;;;;;;;;;;;;;5113203;28;19907;-60
2022/03/04 03:54:11;;;;;;;;;;;;;;;;;;5113013;28;19911;-58
2022/03/04 03:56:38;;;;;;;;;;;;;;;;;;5112921;28;19915;-56
2022/03/04 03:59:04;;;;;;;;;;;;;;;;;;5112984;28;19908;-59
2022/03/04 04:01:31;;;;;;;;;;;;;;;;;;5113201;28;20411;-58
2022/03/04 04:03:58;;;;;;;;;;;;;;;;;;5112512;28;19920;-59
2022/03/04 04:06:24;;;;;;;;;;;;;;;;;;5113228;28;19942;-56
2022/03/04 04:08:50;;;;;;;;;;;;;;;;;;5112854;27;19984;-59
2022/03/04 04:11:17;;;;;;;;;;;;;;;;;;5113136;28;20353;-59
2022/03/04 04:13:43;;;;;;;;;;;;;;;;;;5112626;28;20011;-59
2022/03/04 04:16:10;;;;;;;;;;;;;;;;;;5113019;28;19908;-57
2022/03/04 04:18:36;;;;;;;;;;;;;;;;;;5113014;28;19908;-59
2022/03/04 04:21:04;;;;;;;;;;;;;;;;;;5112632;28;20336;-59
2022/03/04 04:23:30;;;;;;;;;;;;;;;;;;5113157;28;20353;-59
2022/03/04 04:25:57;;;;;;;;;;;;;;;;;;5112907;28;20353;-58
2022/03/04 04:28:25;;;;;;;;;;;;;;;;;;5092456;28;20344;-58
2022/03/04 04:30:51;;;;;;;;;;;;;;;;;;5092610;28;19908;-55
2022/03/04 04:33:18;;;;;;;;;;;;;;;;;;5093030;28;19908;-54
2022/03/04 04:35:44;;;;;;;;;;;;;;;;;;5091675;28;20370;-55
2022/03/04 04:38:11;;;;;;;;;;;;;;;;;;5092389;28;19969;-57
2022/03/04 04:40:37;;;;;;;;;;;;;;;;;;5092308;28;19908;-56
2022/03/04 04:43:04;;;;;;;;;;;;;;;;;;5092707;28;19908;-58
2022/03/04 04:45:30;;;;;;;;;;;;;;;;;;5092441;28;19916;-61
2022/03/04 04:47:57;;;;;;;;;;;;;;;;;;5092509;28;19908;-61
2022/03/04 04:50:23;;;;;;;;;;;;;;;;;;5092913;28;20013;-61
2022/03/04 04:52:50;;;;;;;;;;;;;;;;;;5092122;28;19908;-57
2022/03/04 04:55:16;;;;;;;;;;;;;;;;;;5091174;28;20080;-58
2022/03/04 04:57:43;;;;;;;;;;;;;;;;;;5091907;28;20365;-56
2022/03/04 05:00:09;;;;;;;;;;;;;;;;;;5092209;28;20354;-55
2022/03/04 05:02:35;;;;;;;;;;;;;;;;;;5091567;28;19932;-56
2022/03/04 05:05:03;;;;;;;;;;;;;;;;;;5092204;28;19966;-55
2022/03/04 05:07:30;;;;;;;;;;;;;;;;;;5092093;28;20354;-58
2022/03/04 05:09:56;;;;;;;;;;;;;;;;;;5092701;28;19919;-57
2022/03/04 05:12:23;;;;;;;;;;;;;;;;;;5092253;28;20287;-56
2022/03/04 05:14:49;;;;;;;;;;;;;;;;;;5091581;28;19912;-54
2022/03/04 05:17:16;;;;;;;;;;;;;;;;;;5091456;28;19908;-58
2022/03/04 05:19:42;;;;;;;;;;;;;;;;;;5092143;28;19930;-54
2022/03/04 05:22:09;;;;;;;;;;;;;;;;;;5091944;28;20423;-59
2022/03/04 05:24:35;;;;;;;;;;;;;;;;;;5091694;28;19969;-55
2022/03/04 05:27:02;;;;;;;;;;;;;;;;;;5091805;28;19909;-57
2022/03/04 05:29:28;;;;;;;;;;;;;;;;;;5092082;28;20238;-54
2022/03/04 05:31:55;;;;;;;;;;;;;;;;;;5091728;28;19908;-53
2022/03/04 05:34:21;;;;;;;;;;;;;;;;;;5092064;28;19915;-55
2022/03/04 05:36:47;;;;;;;;;;;;;;;;;;5091139;28;19915;-59
2022/03/04 05:39:14;;;;;;;;;;;;;;;;;;5092089;28;19918;-55
2022/03/04 05:41:41;;;;;;;;;;;;;;;;;;5095590;28;19915;-55
2022/03/04 05:44:08;;;;;;;;;;;;;;;;;;5095719;28;20422;-57
2022/03/04 05:46:34;;;;;;;;;;;;;;;;;;5095188;28;19912;-57
2022/03/04 05:49:02;;;;;;;;;;;;;;;;;;5093963;28;19916;-55
2022/03/04 05:51:29;;;;;;;;;;;;;;;;;;5095364;28;19955;-55
2022/03/04 05:53:55;;;;;;;;;;;;;;;;;;5095505;28;19914;-58
2022/03/04 05:56:22;;;;;;;;;;;;;;;;;;5095104;28;19908;-55
2022/03/04 05:58:49;;;;;;;;;;;;;;;;;;5093339;28;19954;-53
2022/03/04 06:01:15;;;;;;;;;;;;;;;;;;5093828;28;19956;-57
2022/03/04 06:03:41;;;;;;;;;;;;;;;;;;5094794;28;20378;-57
2022/03/04 06:06:08;;;;;;;;;;;;;;;;;;5093195;28;19916;-58
2022/03/04 06:08:35;;;;;;;;;;;;;;;;;;5094623;28;19915;-57
2022/03/04 06:11:02;;;;;;;;;;;;;;;;;;5094579;28;19908;-58
2022/03/04 06:13:28;;;;;;;;;;;;;;;;;;5094778;28;19933;-60
2022/03/04 06:15:55;;;;;;;;;;;;;;;;;;5094975;28;20329;-56
2022/03/04 06:18:21;;;;;;;;;;;;;;;;;;5094613;28;20421;-60
2022/03/04 06:20:48;;;;;;;;;;;;;;;;;;5094569;28;20362;-57
2022/03/04 06:23:14;;;;;;;;;;;;;;;;;;5094896;28;20083;-55
2022/03/04 06:25:41;;;;;;;;;;;;;;;;;;5094959;28;20011;-59
2022/03/04 06:28:07;;;;;;;;;;;;;;;;;;5095332;28;19912;-58
2022/03/04 06:30:34;;;;;;;;;;;;;;;;;;5094604;28;19947;-56
2022/03/04 06:35:45;;;;;;;;;;;;;;;;;;5094641;28;19916;-56
2022/03/04 06:38:11;;;;;;;;;;;;;;;;;;5094780;28;20296;-58
2022/03/04 06:40:38;;;;;;;;;;;;;;;;;;5094469;28;19908;-58
2022/03/04 06:43:04;;;;;;;;;;;;;;;;;;5094451;28;20318;-53
2022/03/04 06:45:31;;;;;;;;;;;;;;;;;;5094386;28;19916;-57
2022/03/04 06:47:57;;;;;;;;;;;;;;;;;;5093775;28;19908;-54
2022/03/04 06:50:24;;;;;;;;;;;;;;;;;;5093636;28;20355;-53
2022/03/04 06:52:50;;;;;;;;;;;;;;;;;;5093999;28;19945;-56
2022/03/04 06:55:17;;;;;;;;;;;;;;;;;;5093885;28;19904;-56
2022/03/04 06:57:43;;;;;;;;;;;;;;;;;;5093354;28;19913;-58
2022/03/04 07:00:10;;;;;;;;;;;;;;;;;;5093956;28;19904;-57
2022/03/04 07:02:37;;;;;;;;;;;;;;;;;;5093179;28;20355;-57
2022/03/04 07:05:03;;;;;;;;;;;;;;;;;;5093402;28;19948;-57
2022/03/04 07:07:30;;;;;;;;;;;;;;;;;;5093867;28;19908;-57
2022/03/04 07:09:56;;;;;;;;;;;;;;;;;;5093829;28;19915;-57
2022/03/04 07:12:23;;;;;;;;;;;;;;;;;;5093055;28;20354;-55
2022/03/04 07:14:51;;;;;;;;;;;;;;;;;;5093574;28;19994;-60
2022/03/04 07:17:17;;;;;;;;;;;;;;;;;;5093244;28;19908;-59
2022/03/04 07:19:43;;;;;;;;;;;;;;;;;;5093538;28;19961;-53
2022/03/04 07:22:10;;;;;;;;;;;;;;;;;;5093352;28;19927;-56
2022/03/04 07:24:36;;;;;;;;;;;;;;;;;;5093290;28;19919;-59
2022/03/04 07:27:03;;;;;;;;;;;;;;;;;;5090538;28;19919;-53
2022/03/04 07:29:29;;;;;;;;;;;;;;;;;;5092968;28;20319;-58
2022/03/04 07:31:56;;;;;;;;;;;;;;;;;;5092929;28;19912;-52
2022/03/04 07:34:22;;;;;;;;;;;;;;;;;;5092919;28;19909;-56
2022/03/04 07:36:49;;;;;;;;;;;;;;;;;;5093710;28;19908;-61
2022/03/04 07:39:15;;;;;;;;;;;;;;;;;;5093307;28;19908;-61
2022/03/04 07:41:42;;;;;;;;;;;;;;;;;;5093256;28;19908;-57
2022/03/04 07:44:10;;;;;;;;;;;;;;;;;;5093461;28;19954;-59
2022/03/04 07:46:36;;;;;;;;;;;;;;;;;;5093298;28;20235;-57
2022/03/04 07:49:03;;;;;;;;;;;;;;;;;;5093415;28;20255;-61
2022/03/04 07:51:29;;;;;;;;;;;;;;;;;;5093363;28;19912;-56
2022/03/04 07:53:56;;;;;;;;;;;;;;;;;;5093440;28;19912;-58
2022/03/04 07:56:25;;;;;;;;;;;;;;;;;;5093355;28;19908;-57
2022/03/04 07:58:52;;;;;;;;;;;;;;;;;;5093116;28;19908;-58
2022/03/04 08:01:18;;;;;;;;;;;;;;;;;;5093260;28;19912;-56
2022/03/04 08:03:45;;;;;;;;;;;;;;;;;;5091877;28;20382;-56
2022/03/04 08:06:12;;;;;;;;;;;;;;;;;;5093196;28;19922;-58
2022/03/04 08:08:38;;;;;;;;;;;;;;;;;;5092914;28;20357;-56
2022/03/04 08:11:05;;;;;;;;;;;;;;;;;;5093160;28;20370;-57
2022/03/04 08:13:32;;;;;;;;;;;;;;;;;;5093444;28;19930;-60
2022/03/04 08:15:59;;;;;;;;;;;;;;;;;;5093560;28;20362;-55
2022/03/04 08:18:25;;;;;;;;;;;;;;;;;;5093108;28;20006;-52
2022/03/04 08:20:53;;;;;;;;;;;;;;;;;;5092430;28;19954;-55
2022/03/04 08:23:19;;;;;;;;;;;;;;;;;;5092921;28;20034;-62
2022/03/04 08:25:46;;;;;;;;;;;;;;;;;;5093176;28;19920;-53
2022/03/04 08:28:12;;;;;;;;;;;;;;;;;;5093004;28;20431;-59
2022/03/04 08:30:39;;;;;;;;;;;;;;;;;;5093232;28;20007;-57
2022/03/04 08:33:05;;;;;;;;;;;;;;;;;;5092864;28;19921;-56
2022/03/04 08:35:32;;;;;;;;;;;;;;;;;;5093191;28;19908;-58
2022/03/04 08:38:00;;;;;;;;;;;;;;;;;;5093136;28;19999;-60
2022/03/04 08:40:26;;;;;;;;;;;;;;;;;;5091741;28;20422;-58
2022/03/04 08:42:53;;;;;;;;;;;;;;;;;;5092825;28;20359;-53
2022/03/04 08:45:20;;;;;;;;;;;;;;;;;;5093198;28;19916;-54
2022/03/04 08:47:46;;;;;;;;;;;;;;;;;;5093127;28;19943;-52
2022/03/04 08:50:13;;;;;;;;;;;;;;;;;;5093172;28;20351;-57
2022/03/04 08:52:39;;;;;;;;;;;;;;;;;;5092513;28;20387;-59
2022/03/04 08:55:07;;;;;;;;;;;;;;;;;;5093050;28;19908;-63
2022/03/04 08:57:34;;;;;;;;;;;;;;;;;;5093005;28;19928;-58
2022/03/04 09:00:00;;;;;;;;;;;;;;;;;;5093325;28;19962;-60
2022/03/04 09:02:27;;;;;;;;;;;;;;;;;;5092635;28;19920;-56
2022/03/04 09:04:53;;;;;;;;;;;;;;;;;;5092657;28;19916;-60
2022/03/04 09:07:20;;;;;;;;;;;;;;;;;;5092680;28;19958;-56
2022/03/04 09:09:46;;;;;;;;;;;;;;;;;;5093182;28;20263;-55
2022/03/04 09:12:13;;;;;;;;;;;;;;;;;;5092716;28;19993;-60
2022/03/04 09:14:39;;;;;;;;;;;;;;;;;;5094875;28;19919;-60
2022/03/04 09:17:06;;;;;;;;;;;;;;;;;;5096561;28;19991;-54
2022/03/04 09:19:32;;;;;;;;;;;;;;;;;;5096579;28;20024;-50
2022/03/04 09:21:59;;;;;;;;;;;;;;;;;;5096418;28;19923;-53
2022/03/04 09:24:25;;;;;;;;;;;;;;;;;;5096400;28;20405;-58
2022/03/04 09:26:52;;;;;;;;;;;;;;;;;;5096321;28;19912;-60
2022/03/04 09:29:18;;;;;;;;;;;;;;;;;;5096376;28;19912;-58
2022/03/04 09:31:45;;;;;;;;;;;;;;;;;;5096216;28;19908;-60
2022/03/04 09:34:11;;;;;;;;;;;;;;;;;;5095722;28;19935;-57
2022/03/04 09:36:38;;;;;;;;;;;;;;;;;;5095595;28;20428;-58
2022/03/04 09:39:04;;;;;;;;;;;;;;;;;;5095485;28;20369;-57
2022/03/04 09:41:31;;;;;;;;;;;;;;;;;;5095605;28;20246;-59
2022/03/04 09:43:58;;;;;;;;;;;;;;;;;;5095541;28;20270;-56
2022/03/04 09:46:24;;;;;;;;;;;;;;;;;;5095182;28;19923;-57
2022/03/04 09:48:51;;;;;;;;;;;;;;;;;;5095300;28;19908;-56
2022/03/04 09:51:18;;;;;;;;;;;;;;;;;;5095472;28;19944;-53
2022/03/04 09:53:45;;;;;;;;;;;;;;;;;;5095981;28;19965;-55
2022/03/04 09:56:12;;;;;;;;;;;;;;;;;;5095799;28;20364;-58
2022/03/04 09:58:39;;;;;;;;;;;;;;;;;;5095287;28;19931;-57
2022/03/04 10:01:05;;;;;;;;;;;;;;;;;;5095517;28;20408;-58
2022/03/04 10:03:32;;;;;;;;;;;;;;;;;;5095276;28;20472;-58
2022/03/04 10:05:59;;;;;;;;;;;;;;;;;;5095541;28;20025;-54
2022/03/04 10:08:26;;;;;;;;;;;;;;;;;;5095213;28;19912;-55
2022/03/04 10:10:52;;;;;;;;;;;;;;;;;;5095145;28;20030;-54
2022/03/04 10:13:19;;;;;;;;;;;;;;;;;;5095783;28;19912;-56
2022/03/04 10:15:45;;;;;;;;;;;;;;;;;;5095798;28;19908;-55
2022/03/04 10:18:12;;;;;;;;;;;;;;;;;;5095111;28;19908;-59
2022/03/04 10:20:38;;;;;;;;;;;;;;;;;;5093886;28;19908;-55
2022/03/04 10:23:05;;;;;;;;;;;;;;;;;;5094930;28;19999;-59
2022/03/04 10:25:31;;;;;;;;;;;;;;;;;;5094178;28;19921;-54
2022/03/04 10:27:58;;;;;;;;;;;;;;;;;;5091619;28;20346;-55
2022/03/04 10:30:24;;;;;;;;;;;;;;;;;;5095056;28;20464;-53
2022/03/04 10:32:51;;;;;;;;;;;;;;;;;;5092195;28;20555;-55
2022/03/04 10:35:17;;;;;;;;;;;;;;;;;;5094282;28;19912;-58
2022/03/04 10:37:44;;;;;;;;;;;;;;;;;;5094569;28;19908;-57
2022/03/04 10:40:10;;;;;;;;;;;;;;;;;;5094787;28;20000;-54
2022/03/04 10:42:37;;;;;;;;;;;;;;;;;;5094555;28;20321;-55
2022/03/04 10:45:03;;;;;;;;;;;;;;;;;;5094127;28;19917;-55
2022/03/04 10:47:30;;;;;;;;;;;;;;;;;;5094878;28;19908;-58
2022/03/04 10:49:56;;;;;;;;;;;;;;;;;;5094348;28;20295;-58
2022/03/04 10:52:23;;;;;;;;;;;;;;;;;;5094803;28;19961;-53
2022/03/04 10:54:49;;;;;;;;;;;;;;;;;;5094304;28;19931;-58
2022/03/04 10:57:19;;;;;;;;;;;;;;;;;;5094596;28;19982;-55
2022/03/04 10:59:46;;;;;;;;;;;;;;;;;;5094646;28;20039;-58
2022/03/04 11:02:12;;;;;;;;;;;;;;;;;;5094112;28;19912;-59
2022/03/04 11:04:39;;;;;;;;;;;;;;;;;;5094088;28;19920;-59
2022/03/04 11:07:05;;;;;;;;;;;;;;;;;;5094203;28;19912;-57
2022/03/04 11:09:32;;;;;;;;;;;;;;;;;;5094142;28;19908;-60
2022/03/04 11:11:58;;;;;;;;;;;;;;;;;;5093960;28;19915;-58
2022/03/04 11:14:25;;;;;;;;;;;;;;;;;;5094155;28;19914;-58
2022/03/04 11:16:51;;;;;;;;;;;;;;;;;;5093484;28;20270;-58
2022/03/04 11:19:18;;;;;;;;;;;;;;;;;;5094174;28;19908;-58
2022/03/04 11:21:44;;;;;;;;;;;;;;;;;;5093938;28;20002;-57
2022/03/04 11:24:10;;;;;;;;;;;;;;;;;;5094160;28;19926;-57
2022/03/04 11:26:37;;;;;;;;;;;;;;;;;;5092746;28;19916;-56
2022/03/04 11:29:05;;;;;;;;;;;;;;;;;;5093906;28;19942;-59
2022/03/04 11:31:31;;;;;;;;;;;;;;;;;;5093824;28;20364;-55
2022/03/04 11:33:58;;;;;;;;;;;;;;;;;;5094107;28;19912;-56
2022/03/04 11:36:28;;;;;;;;;;;;;;;;;;5093750;28;19908;-55
2022/03/04 11:38:55;;;;;;;;;;;;;;;;;;5093331;28;19908;-57
2022/03/04 11:41:21;;;;;;;;;;;;;;;;;;5093474;28;20362;-57
2022/03/04 11:43:47;;;;;;;;;;;;;;;;;;5093632;28;20247;-55
2022/03/04 11:46:14;;;;;;;;;;;;;;;;;;5093667;28;19916;-52
2022/03/04 11:48:40;;;;;;;;;;;;;;;;;;5093576;28;19908;-56
2022/03/04 11:51:12;;;;;;;;;;;;;;;;;;5093666;28;19916;-57
2022/03/04 11:53:38;;;;;;;;;;;;;;;;;;5093953;28;19908;-57
2022/03/04 11:56:10;;;;;;;;;;;;;;;;;;5093406;28;19915;-56
2022/03/04 11:58:36;;;;;;;;;;;;;;;;;;5093609;28;19908;-57
2022/03/04 12:01:03;;;;;;;;;;;;;;;;;;5093390;28;19912;-58
2022/03/04 12:03:29;;;;;;;;;;;;;;;;;;5093424;28;19931;-55
2022/03/04 12:05:56;;;;;;;;;;;;;;;;;;5092031;28;19921;-59
2022/03/04 12:08:26;;;;;;;;;;;;;;;;;;5092506;28;20455;-60
2022/03/04 12:10:53;;;;;;;;;;;;;;;;;;5093123;28;19912;-58
2022/03/04 12:13:20;;;;;;;;;;;;;;;;;;5094059;28;19955;-59
2022/03/04 12:15:47;;;;;;;;;;;;;;;;;;5093332;28;19943;-58
2022/03/04 12:18:13;;;;;;;;;;;;;;;;;;5093436;28;19904;-59
2022/03/04 12:20:40;;;;;;;;;;;;;;;;;;5093374;28;19915;-64
2022/03/04 12:23:09;;;;;;;;;;;;;;;;;;5092361;28;19999;-58
2022/03/04 12:25:36;;;;;;;;;;;;;;;;;;5093296;28;19916;-56
2022/03/04 12:28:05;;;;;;;;;;;;;;;;;;5093262;28;19908;-55
2022/03/04 12:30:32;;;;;;;;;;;;;;;;;;5093200;28;20017;-56
2022/03/04 12:32:58;;;;;;;;;;;;;;;;;;5093298;28;20355;-58
2022/03/04 12:35:25;;;;;;;;;;;;;;;;;;5086898;28;19916;-58
2022/03/04 12:37:51;;;;;;;;;;;;;;;;;;5091123;28;19912;-55
2022/03/04 12:40:19;;;;;;;;;;;;;;;;;;5088195;28;19916;-55
2022/03/04 12:42:46;;;;;;;;;;;;;;;;;;5089340;28;19912;-55
2022/03/04 12:45:12;;;;;;;;;;;;;;;;;;5087296;28;19912;-60
2022/03/04 12:47:40;;;;;;;;;;;;;;;;;;5085670;28;19923;-57
2022/03/04 12:50:10;;;;;;;;;;;;;;;;;;5091970;28;20022;-57
2022/03/04 12:52:37;;;;;;;;;;;;;;;;;;5091237;28;19915;-54
2022/03/04 12:55:03;;;;;;;;;;;;;;;;;;5091737;28;19912;-56
2022/03/04 12:57:30;;;;;;;;;;;;;;;;;;5093649;28;20340;-53
2022/03/04 12:59:58;;;;;;;;;;;;;;;;;;5089174;28;19916;-56
2022/03/04 13:02:25;;;;;;;;;;;;;;;;;;5091242;28;19916;-51
2022/03/04 13:04:52;;;;;;;;;;;;;;;;;;5092226;28;20307;-56
2022/03/04 13:07:18;;;;;;;;;;;;;;;;;;5090693;28;20005;-51
2022/03/04 13:09:45;;;;;;;;;;;;;;;;;;5088618;28;19915;-52
2022/03/04 13:12:11;;;;;;;;;;;;;;;;;;5093746;28;19908;-54
2022/03/04 13:14:38;;;;;;;;;;;;;;;;;;5093102;28;20381;-56
2022/03/04 13:17:04;;;;;;;;;;;;;;;;;;5092543;28;19908;-57
2022/03/04 13:19:31;;;;;;;;;;;;;;;;;;5090986;28;19908;-55
2022/03/04 13:21:57;;;;;;;;;;;;;;;;;;5093360;28;19947;-54
2022/03/04 13:24:24;;;;;;;;;;;;;;;;;;5092712;28;20014;-57
2022/03/04 13:26:50;;;;;;;;;;;;;;;;;;5093163;28;19916;-55
2022/03/04 13:29:17;;;;;;;;;;;;;;;;;;5090810;28;19916;-55
2022/03/04 13:31:43;;;;;;;;;;;;;;;;;;5094024;28;20022;-55
2022/03/04 13:34:10;;;;;;;;;;;;;;;;;;5092333;28;19908;-56
2022/03/04 13:36:36;;;;;;;;;;;;;;;;;;5091795;28;19909;-58
2022/03/04 13:39:03;;;;;;;;;;;;;;;;;;5090284;28;20270;-55
2022/03/04 13:41:29;;;;;;;;;;;;;;;;;;5093321;28;20058;-53
2022/03/04 13:43:56;;;;;;;;;;;;;;;;;;5092774;28;19919;-55
2022/03/04 13:46:26;;;;;;;;;;;;;;;;;;5092395;28;19923;-57
2022/03/04 13:48:52;;;;;;;;;;;;;;;;;;5088945;28;19931;-55
2022/03/04 13:51:19;;;;;;;;;;;;;;;;;;5092796;28;20005;-57
2022/03/04 13:53:45;;;;;;;;;;;;;;;;;;5092701;28;19912;-55
2022/03/04 13:56:12;;;;;;;;;;;;;;;;;;5092977;28;19963;-59
2022/03/04 13:58:38;;;;;;;;;;;;;;;;;;5089607;28;19908;-53
2022/03/04 14:01:05;;;;;;;;;;;;;;;;;;5090727;28;19912;-55
2022/03/04 14:03:31;;;;;;;;;;;;;;;;;;5092597;28;20014;-56
2022/03/04 14:05:58;;;;;;;;;;;;;;;;;;5092765;28;19935;-54
2022/03/04 14:08:24;;;;;;;;;;;;;;;;;;5089621;28;19952;-54
2022/03/04 14:10:51;;;;;;;;;;;;;;;;;;5092162;28;19915;-56
2022/03/04 14:13:17;;;;;;;;;;;;;;;;;;5092197;28;20010;-56
2022/03/04 14:15:44;;;;;;;;;;;;;;;;;;5092276;28;19912;-55
2022/03/04 14:18:10;;;;;;;;;;;;;;;;;;5087838;28;20359;-55
2022/03/04 14:20:36;;;;;;;;;;;;;;;;;;5092590;28;19938;-55
2022/03/04 14:23:03;;;;;;;;;;;;;;;;;;5092379;28;20285;-55
2022/03/04 14:25:29;;;;;;;;;;;;;;;;;;5092498;28;19924;-53
2022/03/04 14:27:56;;;;;;;;;;;;;;;;;;5089118;28;19923;-52
2022/03/04 14:30:22;;;;;;;;;;;;;;;;;;5092194;28;20361;-54
2022/03/04 14:32:49;;;;;;;;;;;;;;;;;;5091530;28;19920;-58
2022/03/04 14:35:15;;;;;;;;;;;;;;;;;;5091992;28;19908;-55
2022/03/04 14:37:42;;;;;;;;;;;;;;;;;;5092143;28;19908;-56
2022/03/04 14:40:10;;;;;;;;;;;;;;;;;;5090194;28;20381;-54
2022/03/04 14:42:38;;;;;;;;;;;;;;;;;;5091838;28;19909;-49
2022/03/04 14:45:05;;;;;;;;;;;;;;;;;;5091393;28;19924;-53
2022/03/04 14:47:31;;;;;;;;;;;;;;;;;;5091976;28;19915;-54
2022/03/04 14:49:58;;;;;;;;;;;;;;;;;;5088443;28;19908;-54
2022/03/04 14:52:24;;;;;;;;;;;;;;;;;;5091736;28;19915;-59
2022/03/04 14:54:51;;;;;;;;;;;;;;;;;;5090774;28;19908;-56
2022/03/04 14:57:17;;;;;;;;;;;;;;;;;;5091578;28;19923;-59
2022/03/04 14:59:43;;;;;;;;;;;;;;;;;;5088005;28;19950;-55
2022/03/04 15:02:10;;;;;;;;;;;;;;;;;;5090604;28;19924;-54
2022/03/04 15:04:36;;;;;;;;;;;;;;;;;;5090943;28;19916;-57
2022/03/04 15:07:08;;;;;;;;;;;;;;;;;;5091340;28;19908;-53
2022/03/04 15:09:34;;;;;;;;;;;;;;;;;;5087879;28;19912;-55
2022/03/04 15:12:01;;;;;;;;;;;;;;;;;;5090406;28;19915;-55
2022/03/04 15:14:27;;;;;;;;;;;;;;;;;;5091067;28;20362;-56
2022/03/04 15:16:54;;;;;;;;;;;;;;;;;;5091084;28;19908;-56
2022/03/04 15:19:20;;;;;;;;;;;;;;;;;;5087563;28;19978;-57
2022/03/04 15:21:47;;;;;;;;;;;;;;;;;;5091102;28;19927;-56
2022/03/04 15:24:13;;;;;;;;;;;;;;;;;;5090789;28;19969;-52
2022/03/04 15:26:41;;;;;;;;;;;;;;;;;;5091093;28;20014;-58
2022/03/04 15:29:08;;;;;;;;;;;;;;;;;;5085229;28;19955;-55
2022/03/04 15:31:34;;;;;;;;;;;;;;;;;;5089502;28;19938;-55
2022/03/04 15:34:01;;;;;;;;;;;;;;;;;;5091184;28;19915;-57
2022/03/04 15:36:27;;;;;;;;;;;;;;;;;;5091081;28;19908;-54
2022/03/04 15:38:54;;;;;;;;;;;;;;;;;;5086243;28;19916;-50
2022/03/04 15:41:20;;;;;;;;;;;;;;;;;;5091032;28;19954;-57
2022/03/04 15:43:47;;;;;;;;;;;;;;;;;;5090789;28;19927;-53
2022/03/04 15:46:13;;;;;;;;;;;;;;;;;;5089914;28;20037;-54
2022/03/04 15:48:40;;;;;;;;;;;;;;;;;;5087171;28;19924;-58
2022/03/04 15:51:06;;;;;;;;;;;;;;;;;;5090900;28;20375;-53
2022/03/04 15:53:33;;;;;;;;;;;;;;;;;;5090580;28;19908;-59
2022/03/04 15:56:01;;;;;;;;;;;;;;;;;;5090016;28;19990;-55
2022/03/04 15:58:27;;;;;;;;;;;;;;;;;;5087236;28;20359;-57
2022/03/04 16:00:56;;;;;;;;;;;;;;;;;;5090475;28;20274;-59
2022/03/04 16:03:22;;;;;;;;;;;;;;;;;;5089737;28;19920;-54
2022/03/04 16:05:49;;;;;;;;;;;;;;;;;;5090181;28;20354;-54
2022/03/04 16:08:15;;;;;;;;;;;;;;;;;;5087102;28;19923;-56
2022/03/04 16:10:42;;;;;;;;;;;;;;;;;;5090332;28;19922;-57
2022/03/04 16:13:08;;;;;;;;;;;;;;;;;;5090348;28;19908;-55
2022/03/04 16:15:35;;;;;;;;;;;;;;;;;;5090748;28;20284;-56
2022/03/04 16:18:01;;;;;;;;;;;;;;;;;;5085474;28;21251;-56
2022/03/04 16:20:28;;;;;;;;;;;;;;;;;;5090249;28;19909;-58
2022/03/04 16:22:54;;;;;;;;;;;;;;;;;;5089283;28;19912;-57
2022/03/04 16:25:21;;;;;;;;;;;;;;;;;;5090157;28;19916;-56
2022/03/04 16:27:47;;;;;;;;;;;;;;;;;;5087496;28;19957;-56
2022/03/04 16:30:14;;;;;;;;;;;;;;;;;;5087113;28;20318;-55
2022/03/04 16:32:40;;;;;;;;;;;;;;;;;;5090456;28;19912;-56
2022/03/04 16:35:07;;;;;;;;;;;;;;;;;;5090513;28;20389;-54
2022/03/04 16:37:33;;;;;;;;;;;;;;;;;;5090585;28;19908;-56
2022/03/04 16:40:00;;;;;;;;;;;;;;;;;;5093779;28;19912;-56
2022/03/04 16:42:26;;;;;;;;;;;;;;;;;;5093144;28;19908;-57
2022/03/04 16:44:53;;;;;;;;;;;;;;;;;;5092927;28;20278;-56